• Join FlightAware (Why Join?)
  • Login
  • US Flag 
04:20AM EDT


 

Airport Tracker/Info


-or-


 

Live Flight TrackerFlight Track Log ✈ SWA528 ✈ 19-Jul-2013 ✈ KLAX - KSFO

Flight Track Log - Related Links

Times and Time Zones

All times are in EDT time to prevent confusion due to time zone crossing. See the SWA528 flight status page for this flight to view local times or setup timezone preferences in your user account.

Time Position Orientation Groundspeed Altitude Reporting Facility
EDT Latitude Longitude Course Direction KTS MPH feet Rate Location/Type
02:28PM 33.9500 -118.4500 261° West 170 196 1,300  Level Southern California TRACON
02:29PM 33.9383 -118.5411 261° West 242 278 3,400 2,280 Climbing Los Angeles Center
02:30PM 33.9297 -118.6328 264° West 273 314 6,300 3,180 Climbing Los Angeles Center
02:31PM 33.9206 -118.7381 264° West 292 336 10,000 2,700 Climbing Los Angeles Center
02:32PM 33.9119 -118.8453 265° West 338 389 12,000 2,400 Climbing Los Angeles Center
02:33PM 33.9169 -118.9642 273° West 361 415 15,000 2,700 Climbing Los Angeles Center
02:34PM 33.9872 -119.0600 312° West 378 435 17,700 2,640 Climbing Los Angeles Center
02:35PM 34.0611 -119.1600 312° West 399 459 20,600 2,640 Climbing Los Angeles Center
02:36PM 34.1364 -119.2633 311° West 408 470 23,200 2,460 Climbing Los Angeles Center
02:37PM 34.2283 -119.3886 312° West 417 480 25,700 2,100 Climbing Los Angeles Center
02:38PM 34.3092 -119.5003 311° West 437 503 27,600 1,740 Climbing Los Angeles Center
02:39PM 34.3928 -119.6139 312° West 448 516 29,300 1,740 Climbing Los Angeles Center
02:40PM 34.4786 -119.7317 311° West 464 534 31,200 2,040 Climbing Los Angeles Center
02:41PM 34.5678 -119.8403 315° West 453 521 33,600 1,320 Climbing Los Angeles Center
02:42PM 34.6750 -119.9514 320° Northwest 450 518 34,000 720 Climbing Los Angeles Center
02:43PM 34.7678 -120.0547 318° Northwest 451 519 35,200 960 Climbing Los Angeles Center
02:44PM 34.8606 -120.1544 319° Northwest 451 519 36,000 360 Climbing Los Angeles Center
02:45PM 34.9531 -120.2556 318° Northwest 450 518 36,000  Level Los Angeles Center
02:46PM 35.0622 -120.3772 318° Northwest 449 517 36,000  Level Los Angeles Center
02:47PM 35.1542 -120.4789 318° Northwest 449 517 36,000  Level Los Angeles Center
02:48PM 35.2481 -120.5819 318° Northwest 464 534 36,000  Level Los Angeles Center
02:49PM 35.3414 -120.6897 317° Northwest 465 535 36,000  Level Los Angeles Center
02:50PM 35.4361 -120.7947 318° Northwest 462 532 36,000  Level Los Angeles Center
02:51PM 35.5647 -120.9042 325° Northwest 469 540 36,000  Level Los Angeles Center
02:53PM 35.6625 -120.9919 324° Northwest 470 541 36,000  Level Los Angeles Center
02:53PM 35.7239 -121.0478 324° Northwest 465 535 36,000  Level Oakland Center
02:55PM 35.8958 -121.1978 325° Northwest 469 540 36,000  Level Los Angeles Center
02:55PM 35.9369 -121.2356 323° Northwest 467 537 36,000 -1,020 Level Oakland Center
02:56PM 36.0453 -121.3308 325° Northwest 478 550 34,500 -2,220 Descending Oakland Center
02:57PM 36.1494 -121.4269 323° Northwest 470 541 31,500 -3,120 Descending Oakland Center
02:58PM 36.2761 -121.5386 325° Northwest 465 535 28,100 -2,760 Descending Oakland Center
02:59PM 36.3769 -121.6303 324° Northwest 450 518 25,800 -2,280 Descending Oakland Center
03:00PM 36.4500 -121.6833 330° Northwest 429 494 24,200 -2,280 Descending Northern Cal TRACON
03:01PM 36.5500 -121.7833 321° Northwest 418 481 22,000 -1,920 Descending Northern Cal TRACON
03:02PM 36.6333 -121.8667 321° Northwest 452 520 20,400 -1,800 Descending Northern Cal TRACON
03:03PM 36.7167 -121.9333 327° Northwest 409 471 18,400 -2,100 Descending Northern Cal TRACON
03:04PM 36.8167 -121.9833 338° Northwest 374 430 16,300 -2,040 Descending Northern Cal TRACON
03:05PM 36.9167 -122.0167 345° North 364 419 14,400 -1,860 Descending Northern Cal TRACON
03:05PM 36.9544 -122.0192 357° North 367 422 13,500 -1,920 Descending Oakland Center
03:06PM 37.0506 -122.0439 348° North 354 407 11,500 -1,680 Descending Oakland Center
03:07PM 37.1447 -122.0681 348° North 346 398 10,100 -1,320 Descending Oakland Center
03:08PM 37.2428 -122.0956 347° North 302 348 8,900 -1,200 Descending Oakland Center
03:10PM 37.3222 -122.1153 349° North 294 338 7,700 -720 Descending Oakland Center
03:11PM 37.3844 -122.0972 13° North 232 267 7,500 -720 Descending Oakland Center
03:12PM 37.4406 -122.1089 351° North 209 241 6,300 -1,200 Descending Oakland Center
03:13PM 37.4950 -122.1264 346° North 202 232 5,100 -1,320 Descending Oakland Center
03:14PM 37.5306 -122.1717 315° West 197 227 3,700 -1,380 Descending Oakland Center
03:15PM 37.5558 -122.2283 299° West 191 220 2,300 -1,320 Descending Oakland Center
03:16PM 37.5825 -122.2933 297° West 181 208 1,000 -1,020 Descending Oakland Center
03:17PM 37.6003 -122.3353 298° West 158 182 300 -720 Descending Oakland Center
03:20PM 37.6167 -122.3667 322° Northwest  Level FlightAware Approximate